Time;durP1;ratioP1;P1;durP2;ratioP2;P2;SDS_P1;SDS_P2;PMS_P1;PMS_P2;Temp;Humidity;BMP_temperature;BMP_pressure;BME280_temperature;BME280_humidity;BME280_pressure;Samples;Min_cycle;Max_cycle;Signal;HPM_P1;HPM_P2
2023/01/02 00:01:40;;;;;;;38.03;14.60;;;;;;;10.34;100.00;100874.53;5053076;28;20041;-49
2023/01/02 00:04:06;;;;;;;37.80;14.60;;;;;;;10.38;100.00;100870.41;5052515;28;20396;-48
2023/01/02 00:06:36;;;;;;;27.23;13.32;;;;;;;10.46;100.00;100871.50;5052681;28;20464;-48
2023/01/02 00:09:06;;;;;;;29.67;13.27;;;;;;;10.53;100.00;100878.59;5053145;28;20074;-47
2023/01/02 00:11:32;;;;;;;30.17;13.07;;;;;;;10.60;100.00;100879.66;5052582;28;20032;-48
2023/01/02 00:13:57;;;;;;;31.23;13.75;;;;;;;10.62;100.00;100877.97;5052931;28;20451;-49
2023/01/02 00:16:22;;;;;;;35.85;14.00;;;;;;;10.62;100.00;100874.53;5053194;28;20025;-45
2023/01/02 00:18:48;;;;;;;31.00;13.38;;;;;;;10.63;100.00;100871.13;5052406;28;20024;-47
2023/01/02 00:21:14;;;;;;;34.58;13.93;;;;;;;10.67;100.00;100867.81;5052841;28;20067;-47
2023/01/02 00:23:39;;;;;;;37.42;13.18;;;;;;;10.68;100.00;100874.72;5051964;28;20028;-48
2023/01/02 00:26:05;;;;;;;30.00;13.20;;;;;;;10.71;100.00;100864.50;5053138;28;20541;-48
2023/01/02 00:28:30;;;;;;;34.03;13.90;;;;;;;10.72;100.00;100871.41;5052601;28;20032;-48
2023/01/02 00:30:56;;;;;;;33.47;14.13;;;;;;;10.70;100.00;100857.56;5051932;28;20131;-48
2023/01/02 00:33:21;;;;;;;34.58;14.02;;;;;;;10.74;100.00;100863.69;5052787;28;20087;-48
2023/01/02 00:35:46;;;;;;;34.55;14.00;;;;;;;10.70;100.00;100857.56;5052084;28;20083;-48
2023/01/02 00:38:12;;;;;;;39.20;14.45;;;;;;;10.69;100.00;100854.13;5051649;28;20410;-46
2023/01/02 00:40:37;;;;;;;32.80;14.70;;;;;;;10.73;100.00;100857.69;5052103;28;20083;-48
2023/01/02 00:43:03;;;;;;;38.30;15.05;;;;;;;10.76;100.00;100844.88;5052700;28;20029;-47
2023/01/02 00:45:28;;;;;;;38.03;14.40;;;;;;;10.80;100.00;100851.00;5052032;28;20025;-48
2023/01/02 00:47:53;;;;;;;31.02;13.70;;;;;;;10.81;100.00;100853.59;5052562;28;20036;-47
2023/01/02 00:50:20;;;;;;;38.03;14.13;;;;;;;10.83;100.00;100854.53;5052698;28;20052;-48
2023/01/02 00:52:45;;;;;;;29.10;13.43;;;;;;;10.85;100.00;100857.16;5051778;28;20563;-48
2023/01/02 00:55:10;;;;;;;32.92;13.43;;;;;;;10.84;100.00;100853.69;5052300;28;20111;-47
2023/01/02 00:57:36;;;;;;;32.42;13.48;;;;;;;10.87;100.00;100851.22;5052463;28;20017;-48
2023/01/02 01:00:02;;;;;;;35.60;13.38;;;;;;;10.92;100.00;100837.56;5054063;28;20143;-48
2023/01/02 01:02:27;;;;;;;31.75;13.57;;;;;;;10.96;100.00;100834.25;5056026;28;20120;-46
2023/01/02 01:04:53;;;;;;;33.85;13.13;;;;;;;10.96;100.00;100829.09;5056270;28;20026;-48
2023/01/02 01:07:18;;;;;;;33.70;13.45;;;;;;;10.95;100.00;100833.38;5056067;28;20358;-48
2023/01/02 01:09:43;;;;;;;32.42;12.90;;;;;;;10.96;100.00;100824.81;5055840;28;20480;-48
2023/01/02 01:12:08;;;;;;;29.50;12.50;;;;;;;11.02;100.00;100831.84;5056643;28;20029;-49
2023/01/02 01:14:34;;;;;;;34.45;12.93;;;;;;;11.06;100.00;100825.94;5055882;28;20049;-48
2023/01/02 01:17:00;;;;;;;32.33;11.27;;;;;;;11.12;100.00;100836.41;5056108;28;20104;-49
2023/01/02 01:19:29;;;;;;;30.27;11.73;;;;;;;11.13;100.00;100830.44;5056104;28;20017;-48
2023/01/02 01:21:55;;;;;;;33.60;12.63;;;;;;;11.18;100.00;100825.38;5055623;28;20502;-45
2023/01/02 01:24:20;;;;;;;30.95;12.13;;;;;;;11.19;100.00;100822.88;5056204;28;20029;-47
2023/01/02 01:26:45;;;;;;;34.67;11.73;;;;;;;11.18;100.00;100831.44;5055858;28;20028;-48
2023/01/02 01:29:10;;;;;;;29.45;12.18;;;;;;;11.13;100.00;100825.28;5055767;28;20025;-46
2023/01/02 01:31:36;;;;;;;33.40;11.30;;;;;;;11.15;100.00;100825.31;5055524;28;20021;-48
2023/01/02 01:34:01;;;;;;;31.13;10.98;;;;;;;11.17;100.00;100834.84;5055659;28;20112;-48
2023/01/02 01:36:26;;;;;;;32.63;11.88;;;;;;;11.18;100.00;100826.28;5056013;28;20021;-47
2023/01/02 01:38:51;;;;;;;34.92;10.88;;;;;;;11.19;100.00;100833.19;5055156;28;20452;-48
2023/01/02 01:41:21;;;;;;;35.03;12.15;;;;;;;11.22;100.00;100834.06;5055645;28;20029;-46
2023/01/02 01:43:50;;;;;;;30.92;11.68;;;;;;;11.14;100.00;100829.59;5055812;28;20138;-47
2023/01/02 01:46:22;;;;;;;31.73;12.05;;;;;;;11.16;100.00;100827.91;5055883;28;20037;-48
2023/01/02 01:48:56;;;;;;;25.23;10.57;;;;;;;11.20;100.00;100834.03;5054389;28;20036;-48
2023/01/02 01:51:25;;;;;;;37.10;12.25;;;;;;;11.18;100.00;100836.59;5055420;28;20388;-48
2023/01/02 01:53:56;;;;;;;32.38;11.00;;;;;;;11.13;100.00;100843.31;5055059;28;20458;-47
2023/01/02 01:56:22;;;;;;;29.38;10.95;;;;;;;11.12;100.00;100840.72;5055289;28;20068;-45
2023/01/02 01:58:48;;;;;;;30.42;11.60;;;;;;;11.10;100.00;100843.22;5055326;28;20049;-49
2023/01/02 02:01:16;;;;;;;34.53;11.20;;;;;;;11.14;100.00;100850.25;5055481;28;20051;-48
2023/01/02 02:03:44;;;;;;;37.25;11.52;;;;;;;11.12;100.00;100846.72;5054636;28;20051;-48
2023/01/02 02:06:10;;;;;;;31.77;11.60;;;;;;;11.10;100.00;100847.53;5055469;28;20028;-47
2023/01/02 02:08:53;;;;;;;29.30;11.85;;;;;;;11.08;100.00;100850.06;5054958;28;20462;-47
2023/01/02 02:11:19;;;;;;;29.90;12.48;;;;;;;11.03;100.00;100849.94;5054427;28;20040;-48
2023/01/02 02:13:45;;;;;;;35.13;11.65;;;;;;;11.05;100.00;100839.66;5054544;28;20032;-48
2023/01/02 02:16:16;;;;;;;25.92;10.73;;;;;;;11.03;100.00;100841.31;5054691;28;20063;-47
2023/01/02 02:19:05;;;;;;;26.48;10.95;;;;;;;11.08;100.00;100844.91;5054699;28;20476;-48
2023/01/02 02:21:50;;;;;;;32.75;11.23;;;;;;;11.05;100.00;100849.97;5055065;28;20029;-47
2023/01/02 02:24:37;;;;;;;28.77;11.98;;;;;;;11.05;100.00;100842.22;5053983;28;20029;-44
2023/01/02 02:27:33;;;;;;;45.13;11.98;;;;;;;11.06;100.00;100851.72;5054201;28;20423;-47
2023/01/02 02:30:13;;;;;;;31.63;11.30;;;;;;;11.10;100.00;100850.97;5055076;28;20039;-46
2023/01/02 02:33:11;;;;;;;28.80;10.88;;;;;;;11.11;100.00;100851.84;5054764;28;20029;-47
2023/01/02 02:35:59;;;;;;;29.10;11.38;;;;;;;11.11;100.00;100847.56;5054830;28;20028;-49
2023/01/02 02:39:18;;;;;;;32.85;10.82;;;;;;;11.12;100.00;100851.88;5054149;28;20541;-48
2023/01/02 02:42:08;;;;;;;30.95;10.50;;;;;;;11.11;100.00;100844.97;5032249;28;20029;-46
2023/01/02 02:44:53;;;;;;;34.20;11.30;;;;;;;11.11;100.00;100852.72;5054167;28;20056;-47
2023/01/02 02:47:54;;;;;;;32.53;11.18;;;;;;;11.12;100.00;100844.16;5054595;28;20029;-49
2023/01/02 02:50:31;;;;;;;35.42;11.68;;;;;;;11.10;100.00;100850.97;5054883;28;20036;-48
2023/01/02 02:53:08;;;;;;;32.72;10.20;;;;;;;11.12;100.00;100844.16;5054138;28;20021;-48
2023/01/02 02:55:45;;;;;;;25.75;11.75;;;;;;;11.13;100.00;100842.44;5054162;28;20389;-47
2023/01/02 02:58:13;;;;;;;32.33;10.85;;;;;;;11.13;100.00;100847.59;5054849;28;20025;-47
2023/01/02 03:00:39;;;;;;;;;;;;;;;11.15;100.00;100846.81;5054156;28;20099;-45
2023/01/02 03:03:19;;;;;;;29.88;10.10;;;;;;;11.14;100.00;100839.94;5054395;28;19917;-48
2023/01/02 03:06:03;;;;;;;34.42;10.80;;;;;;;11.13;100.00;100835.59;5053642;28;20056;-47
2023/01/02 03:08:43;;;;;;;32.05;10.80;;;;;;;11.18;100.00;100836.59;5053785;28;20517;-48
2023/01/02 03:11:09;;;;;;;34.08;11.07;;;;;;;11.17;100.00;100844.28;5054457;28;20025;-47
2023/01/02 03:14:01;;;;;;;27.55;10.43;;;;;;;11.17;100.00;100837.41;5053535;28;20100;-47
2023/01/02 03:16:49;;;;;;;25.50;10.25;;;;;;;11.15;100.00;100839.06;5053930;28;20033;-47
2023/01/02 03:19:21;;;;;;;27.73;11.43;;;;;;;11.13;100.00;100839.84;5054398;28;20044;-47
2023/01/02 03:21:59;;;;;;;25.52;9.88;;;;;;;11.11;100.00;100837.25;5053592;28;20128;-47
2023/01/02 03:24:25;;;;;;;;;;;;;;;11.14;100.00;100837.34;5054294;28;20029;-48
2023/01/02 03:26:58;;;;;;;30.27;10.35;;;;;;;11.12;100.00;100833.84;5053267;28;19912;-48
2023/01/02 03:29:33;;;;;;;29.02;10.23;;;;;;;11.12;100.00;100840.72;5053981;28;20021;-46
2023/01/02 03:32:00;;;;;;;21.30;9.43;;;;;;;11.12;100.00;100831.25;5054125;28;20031;-46
2023/01/02 03:34:30;;;;;;;21.23;9.73;;;;;;;11.10;100.00;100832.91;5053299;28;20495;-48
2023/01/02 03:37:07;;;;;;;30.13;9.55;;;;;;;11.12;100.00;100841.56;5053657;28;20025;-48
2023/01/02 03:39:38;;;;;;;27.17;9.90;;;;;;;11.11;100.00;100844.97;5053456;28;20033;-44
2023/01/02 03:42:08;;;;;;;30.35;9.82;;;;;;;11.08;100.00;100839.75;5053391;28;20036;-49
2023/01/02 03:44:42;;;;;;;32.63;10.65;;;;;;;11.08;100.00;100844.91;5053165;28;20043;-47
2023/01/02 03:47:25;;;;;;;31.83;10.98;;;;;;;11.12;100.00;100845.88;5053762;28;20025;-46
2023/01/02 03:49:53;;;;;;;22.75;10.07;;;;;;;11.11;100.00;100850.13;5052472;28;20032;-47
2023/01/02 03:52:19;;;;;;;20.83;9.60;;;;;;;11.10;100.00;100853.53;5053490;28;20028;-49
2023/01/02 03:54:45;;;;;;;27.95;10.82;;;;;;;11.10;100.00;100856.13;5052881;28;20465;-48
2023/01/02 03:57:25;;;;;;;24.10;9.93;;;;;;;11.11;100.00;100855.28;5053591;28;20103;-48
2023/01/02 04:00:04;;;;;;;23.20;9.50;;;;;;;11.09;100.00;100864.72;5053179;28;20044;-49
2023/01/02 04:02:49;;;;;;;26.85;9.30;;;;;;;11.10;100.00;100858.69;5052397;28;20052;-49
2023/01/02 04:05:19;;;;;;;29.52;10.65;;;;;;;11.12;100.00;100866.50;5053139;28;20175;-49
2023/01/02 04:08:06;;;;;;;26.08;9.73;;;;;;;11.12;100.00;100864.78;5053033;28;20099;-48
2023/01/02 04:10:34;;;;;;;20.00;8.95;;;;;;;11.10;100.00;100871.59;5052424;28;20025;-44
2023/01/02 04:13:03;;;;;;;;;;;;;;;11.15;100.00;100872.59;5053419;28;20029;-48
2023/01/02 04:15:32;;;;;;;26.50;10.88;;;;;;;11.10;100.00;100869.03;5053051;28;19913;-48
2023/01/02 04:18:08;;;;;;;26.63;10.38;;;;;;;11.08;100.00;100865.53;5052740;28;20025;-44
2023/01/02 04:20:39;;;;;;;29.35;10.85;;;;;;;11.03;100.00;100872.28;5052586;28;20028;-49
2023/01/02 04:23:14;;;;;;;27.35;10.02;;;;;;;11.01;100.00;100879.09;5052541;28;20028;-46
2023/01/02 04:25:49;;;;;;;28.73;10.60;;;;;;;10.97;100.00;100872.09;5052592;28;20029;-48
2023/01/02 04:28:22;;;;;;;23.52;11.05;;;;;;;10.94;100.00;100878.03;5053228;28;20116;-47
2023/01/02 04:30:54;;;;;;;27.65;10.80;;;;;;;10.94;100.00;100884.91;5052277;28;20032;-48
2023/01/02 04:33:22;;;;;;;29.83;11.82;;;;;;;10.92;100.00;100884.00;5052397;28;20029;-48
2023/01/02 04:35:47;;;;;;;29.88;11.75;;;;;;;10.93;100.00;100880.59;5051896;28;20029;-48
2023/01/02 04:38:13;;;;;;;33.70;11.18;;;;;;;10.93;100.00;100880.59;5052263;28;20491;-47
2023/01/02 04:40:38;;;;;;;34.53;11.10;;;;;;;10.91;100.00;100888.28;5052481;28;20025;-49
2023/01/02 04:43:07;;;;;;;30.70;10.52;;;;;;;10.92;100.00;100895.16;5052931;28;20031;-48
2023/01/02 04:45:33;;;;;;;30.17;11.48;;;;;;;10.92;100.00;100899.47;5051994;28;20029;-46
2023/01/02 04:47:58;;;;;;;40.33;10.80;;;;;;;10.90;100.00;100901.09;5052536;28;20021;-46
2023/01/02 04:50:23;;;;;;;33.50;10.85;;;;;;;10.90;100.00;100890.78;5052594;28;20033;-47
2023/01/02 04:52:48;;;;;;;32.58;11.00;;;;;;;10.87;100.00;100896.72;5052040;28;20123;-49
2023/01/02 04:55:14;;;;;;;38.08;10.68;;;;;;;10.90;100.00;100890.78;5052546;28;20029;-47
2023/01/02 04:57:39;;;;;;;25.27;11.00;;;;;;;10.92;100.00;100894.31;5052435;28;20017;-47
2023/01/02 05:00:06;;;;;;;23.13;10.60;;;;;;;10.93;100.00;100896.06;5052204;28;20384;-48
2023/01/02 05:02:36;;;;;;;28.38;11.23;;;;;;;10.92;100.00;100896.88;5051987;28;20052;-46
2023/01/02 05:05:02;;;;;;;28.88;11.00;;;;;;;10.92;100.00;100909.78;5051930;28;20098;-48
2023/01/02 05:07:27;;;;;;;28.95;10.48;;;;;;;10.94;100.00;100914.16;5052253;28;20464;-45
2023/01/02 05:09:52;;;;;;;31.83;10.35;;;;;;;10.94;100.00;100913.28;5052495;28;20041;-48
2023/01/02 05:12:18;;;;;;;24.85;10.30;;;;;;;10.98;100.00;100921.13;5052062;28;20025;-48
2023/01/02 05:14:43;;;;;;;22.10;9.85;;;;;;;10.98;100.00;100909.97;5052083;28;20025;-45
2023/01/02 05:17:08;;;;;;;25.13;10.73;;;;;;;10.97;100.00;100914.22;5052457;28;20064;-47
2023/01/02 05:19:34;;;;;;;25.42;9.95;;;;;;;11.01;100.00;100910.03;5051850;28;20531;-45
2023/01/02 05:24:43;;;;;;;23.13;8.98;;;;;;;11.03;100.00;100909.25;5052349;28;20037;-47
2023/01/02 05:27:08;;;;;;;23.90;9.77;;;;;;;11.06;100.00;100918.78;5051993;28;20017;-46
2023/01/02 05:29:34;;;;;;;28.13;9.48;;;;;;;11.06;100.00;100921.34;5051891;28;20048;-48
2023/01/02 05:31:59;;;;;;;27.00;9.07;;;;;;;11.07;100.00;100919.66;5052471;28;20025;-47
2023/01/02 05:34:24;;;;;;;29.33;9.20;;;;;;;11.05;100.00;100927.34;5051734;28;20380;-48
2023/01/02 05:36:49;;;;;;;23.05;8.18;;;;;;;11.06;100.00;100923.06;5051931;28;20063;-47
2023/01/02 05:39:15;;;;;;;24.40;9.07;;;;;;;11.07;100.00;100933.44;5052198;28;20029;-48
2023/01/02 05:41:40;;;;;;;28.95;8.95;;;;;;;11.06;100.00;100944.56;5051398;28;20056;-47
2023/01/02 05:44:07;;;;;;;25.92;8.73;;;;;;;11.06;100.00;100948.88;5052059;28;20029;-49
2023/01/02 05:46:33;;;;;;;25.33;8.32;;;;;;;11.06;100.00;100954.03;5054338;28;20017;-49
2023/01/02 05:48:59;;;;;;;26.20;8.20;;;;;;;11.07;100.00;100955.78;5055520;28;20025;-48
2023/01/02 05:51:24;;;;;;;22.58;8.40;;;;;;;11.09;100.00;100959.25;5056011;28;20040;-47
2023/01/02 05:53:52;;;;;;;24.02;8.23;;;;;;;11.07;100.00;100955.78;5055713;28;20368;-49
2023/01/02 05:56:20;;;;;;;23.58;9.35;;;;;;;11.10;100.00;100961.00;5055407;28;20029;-48
2023/01/02 05:58:47;;;;;;;21.27;8.45;;;;;;;11.07;100.00;100964.38;5055272;28;20025;-47
2023/01/02 06:01:18;;;;;;;24.80;8.43;;;;;;;11.08;100.00;100958.41;5055154;28;20072;-48
2023/01/02 06:03:45;;;;;;;23.48;8.00;;;;;;;11.08;100.00;100966.13;5055272;28;20087;-47
2023/01/02 06:06:10;;;;;;;17.17;7.40;;;;;;;11.10;100.00;100966.16;5055532;28;20113;-47
2023/01/02 06:08:36;;;;;;;19.60;8.07;;;;;;;11.09;100.00;100969.56;5054805;28;20131;-48
2023/01/02 06:11:04;;;;;;;17.80;7.20;;;;;;;11.04;100.00;100966.88;5055248;28;20025;-48
2023/01/02 06:13:30;;;;;;;22.63;8.15;;;;;;;11.02;100.00;100979.69;5055195;28;20032;-47
2023/01/02 06:15:57;;;;;;;27.60;8.43;;;;;;;10.96;100.00;100978.66;5055352;28;20133;-48
2023/01/02 06:18:23;;;;;;;18.75;7.50;;;;;;;10.91;100.00;100980.22;5055304;28;20037;-49
2023/01/02 06:20:48;;;;;;;20.10;8.15;;;;;;;10.88;100.00;100981.00;5055241;28;20032;-47
2023/01/02 06:23:14;;;;;;;24.20;8.63;;;;;;;10.83;100.00;100991.19;5054817;28;20122;-45
2023/01/02 06:25:39;;;;;;;21.35;8.43;;;;;;;10.79;100.00;101007.38;5054625;28;20488;-47
2023/01/02 06:28:05;;;;;;;27.38;9.00;;;;;;;10.73;100.00;101007.19;5055161;28;20040;-46
2023/01/02 06:30:31;;;;;;;24.63;9.13;;;;;;;10.67;100.00;101025.91;5054209;28;20017;-48
2023/01/02 06:32:56;;;;;;;21.40;8.40;;;;;;;10.59;100.00;101054.81;5054787;28;20025;-47
2023/01/02 06:35:22;;;;;;;17.50;7.78;;;;;;;10.41;100.00;101056.00;5055055;28;20048;-48
2023/01/02 06:37:47;;;;;;;10.88;6.18;;;;;;;10.20;100.00;101064.69;5054133;28;20025;-48
2023/01/02 06:40:13;;;;;;;9.07;5.07;;;;;;;10.02;100.00;101064.06;5054765;28;20108;-48
2023/01/02 06:42:38;;;;;;;6.55;4.75;;;;;;;9.87;100.00;101078.13;5054579;28;20017;-48
2023/01/02 06:45:04;;;;;;;9.95;5.53;;;;;;;9.74;100.00;101080.22;5054477;28;20107;-46
2023/01/02 06:47:29;;;;;;;8.68;4.82;;;;;;;9.64;100.00;101084.13;5054323;28;20029;-46
2023/01/02 06:49:55;;;;;;;11.98;5.18;;;;;;;9.53;100.00;101097.47;5054719;28;20392;-47
2023/01/02 06:52:20;;;;;;;6.72;3.53;;;;;;;9.43;100.00;101107.38;5054304;28;20032;-48
2023/01/02 06:54:45;;;;;;;5.38;2.70;;;;;;;9.32;100.00;101119.81;5054102;28;20074;-46
2023/01/02 06:57:11;;;;;;;4.65;2.10;;;;;;;9.22;100.00;101122.03;5053516;28;20033;-48
2023/01/02 06:59:36;;;;;;;3.97;2.10;;;;;;;9.12;100.00;101130.19;5053675;28;20551;-47
2023/01/02 07:02:01;;;;;;;4.55;2.20;;;;;;;9.02;100.00;101134.06;5054147;28;20049;-44
2023/01/02 07:04:27;;;;;;;4.43;2.45;;;;;;;8.94;100.00;101130.31;5054030;28;20036;-48
2023/01/02 07:06:52;;;;;;;5.35;2.70;;;;;;;8.86;100.00;101140.28;5054288;28;20029;-43
2023/01/02 07:09:17;;;;;;;5.72;3.17;;;;;;;8.78;100.00;101154.53;5054523;28;20070;-44
2023/01/02 07:11:43;;;;;;;5.90;2.63;;;;;;;8.70;100.00;101158.44;5053603;28;20021;-47
2023/01/02 07:14:08;;;;;;;5.30;2.80;;;;;;;8.65;100.00;101167.66;5053997;28;20063;-47
2023/01/02 07:16:33;;;;;;;3.75;2.50;;;;;;;8.59;100.00;101173.41;5054139;28;20100;-47
2023/01/02 07:18:58;;;;;;;4.55;2.90;;;;;;;8.57;100.00;101183.63;5053854;28;20083;-47
2023/01/02 07:21:24;;;;;;;4.82;2.92;;;;;;;8.55;100.00;101187.81;5054005;28;20021;-47
2023/01/02 07:23:49;;;;;;;4.35;2.78;;;;;;;8.53;100.00;101197.16;5053633;28;20033;-48
2023/01/02 07:26:15;;;;;;;6.43;3.80;;;;;;;8.52;100.00;101203.09;5053670;28;20025;-47
2023/01/02 07:28:40;;;;;;;7.15;4.15;;;;;;;8.50;100.00;101207.28;5053415;28;20457;-47
2023/01/02 07:31:16;;;;;;;8.85;4.60;;;;;;;8.48;100.00;101226.91;5054066;28;20032;-46
2023/01/02 07:33:42;;;;;;;10.02;6.30;;;;;;;8.46;100.00;101228.53;5053314;28;20028;-47
2023/01/02 07:36:11;;;;;;;11.70;6.82;;;;;;;8.42;100.00;101234.31;5053695;28;20025;-47
2023/01/02 07:38:38;;;;;;;18.52;9.50;;;;;;;8.40;100.00;101233.34;5053548;28;20020;-46
2023/01/02 07:41:14;;;;;;;19.45;10.48;;;;;;;8.38;100.00;101235.84;5053109;28;20044;-47
2023/01/02 07:43:39;;;;;;;17.40;9.73;;;;;;;8.36;100.00;101244.31;5053254;28;20028;-48
2023/01/02 07:46:05;;;;;;;15.15;7.55;;;;;;;8.36;100.00;101242.59;5053723;28;20037;-46
2023/01/02 07:48:30;;;;;;;16.65;9.13;;;;;;;8.34;100.00;101251.03;5052799;28;20021;-47
2023/01/02 07:51:03;;;;;;;12.57;7.15;;;;;;;8.34;100.00;101256.19;5053426;28;20017;-46
2023/01/02 07:53:29;;;;;;;13.48;8.07;;;;;;;8.33;100.00;101269.84;5053006;28;20392;-48
2023/01/02 07:55:55;;;;;;;14.35;8.98;;;;;;;8.33;100.00;101282.69;5052639;28;20482;-46
2023/01/02 07:58:21;;;;;;;16.88;11.13;;;;;;;8.30;100.00;101287.66;5053579;28;20036;-47
2023/01/02 08:00:47;;;;;;;21.08;13.30;;;;;;;8.28;100.00;101294.44;5052410;28;20045;-47
2023/01/02 08:03:12;;;;;;;20.25;12.55;;;;;;;8.23;100.00;101291.66;5053037;28;20028;-46
2023/01/02 08:05:37;;;;;;;19.77;12.07;;;;;;;8.21;100.00;101306.09;5053042;28;20051;-47
2023/01/02 08:08:03;;;;;;;14.95;7.35;;;;;;;8.17;100.00;101312.81;5052498;28;20025;-46
2023/01/02 08:10:28;;;;;;;11.27;6.57;;;;;;;8.12;100.00;101311.72;5052827;28;20353;-46
2023/01/02 08:12:53;;;;;;;12.18;6.72;;;;;;;8.10;100.00;101315.88;5053267;28;20082;-47
2023/01/02 08:15:18;;;;;;;19.35;8.73;;;;;;;8.09;100.00;101329.50;5052653;28;20017;-46
2023/01/02 08:17:44;;;;;;;14.85;7.43;;;;;;;8.08;100.00;101328.66;5052657;28;20472;-47
2023/01/02 08:20:10;;;;;;;12.65;7.60;;;;;;;8.09;100.00;101334.66;5053095;28;20025;-47
2023/01/02 08:22:35;;;;;;;15.65;8.40;;;;;;;8.14;100.00;101345.16;5052274;28;20016;-46
2023/01/02 08:25:01;;;;;;;20.88;10.85;;;;;;;8.14;100.00;101346.00;5052683;28;20070;-47
2023/01/02 08:27:26;;;;;;;20.65;11.40;;;;;;;8.15;100.00;101341.78;5053112;28;20032;-44
2023/01/02 08:29:52;;;;;;;26.55;16.25;;;;;;;8.17;100.00;101347.84;5052279;28;20071;-46
2023/01/02 08:32:17;;;;;;;38.47;22.75;;;;;;;8.14;100.00;101346.00;5052708;28;20376;-48
2023/01/02 08:34:42;;;;;;;37.80;22.40;;;;;;;8.15;100.00;101364.88;5052619;28;20021;-48
2023/01/02 08:37:07;;;;;;;40.13;22.90;;;;;;;8.17;100.00;101359.00;5052229;28;20085;-46
2023/01/02 08:39:33;;;;;;;36.30;23.30;;;;;;;8.16;100.00;101367.53;5052230;28;20028;-47
2023/01/02 08:41:58;;;;;;;42.60;24.38;;;;;;;8.17;100.00;101373.53;5052852;28;20047;-48
2023/01/02 08:44:23;;;;;;;40.40;25.60;;;;;;;8.14;100.00;101369.13;5052350;28;20082;-44
2023/01/02 08:46:49;;;;;;;40.83;24.67;;;;;;;8.09;100.00;101370.59;5052215;28;20035;-46
2023/01/02 08:49:14;;;;;;;37.45;23.70;;;;;;;8.06;100.00;101385.84;5052643;28;20393;-47
2023/01/02 08:51:39;;;;;;;33.13;21.85;;;;;;;8.03;100.00;101390.81;5051869;28;20025;-46
2023/01/02 08:54:04;;;;;;;34.33;21.02;;;;;;;7.98;100.00;101389.72;5052359;28;20502;-47
2023/01/02 08:56:31;;;;;;;32.58;20.63;;;;;;;7.93;100.00;101399.78;5052552;28;20082;-48
2023/01/02 08:59:05;;;;;;;38.85;21.00;;;;;;;7.91;100.00;101404.84;5052029;28;20052;-48
2023/01/02 09:01:31;;;;;;;36.53;21.48;;;;;;;7.90;100.00;101418.47;5052163;28;20068;-47
2023/01/02 09:03:57;;;;;;;33.90;21.23;;;;;;;7.89;100.00;101414.13;5052530;28;20094;-47
2023/01/02 09:06:24;;;;;;;29.48;18.88;;;;;;;7.87;100.00;101409.72;5051772;28;20798;-46
2023/01/02 09:08:51;;;;;;;32.97;18.75;;;;;;;7.85;100.00;101412.22;5052483;28;20035;-47
2023/01/02 09:11:20;;;;;;;30.52;17.83;;;;;;;7.83;100.00;101418.09;5052276;28;20025;-44
2023/01/02 09:13:46;;;;;;;33.88;18.92;;;;;;;7.81;100.00;101422.25;5052046;28;20036;-47
2023/01/02 09:16:11;;;;;;;26.65;16.40;;;;;;;7.81;100.00;101428.28;5052584;28;20029;-48
2023/01/02 09:18:38;;;;;;;27.52;16.75;;;;;;;7.82;100.00;101437.72;5051630;28;20100;-45
2023/01/02 09:21:04;;;;;;;28.60;17.57;;;;;;;7.84;100.00;101446.38;5053988;28;20075;-45
2023/01/02 09:23:30;;;;;;;27.23;15.80;;;;;;;7.83;100.00;101454.88;5056220;28;20275;-48
2023/01/02 09:26:01;;;;;;;24.83;15.52;;;;;;;7.81;100.00;101451.38;5055648;28;20503;-44
2023/01/02 09:28:27;;;;;;;36.70;20.20;;;;;;;7.82;100.00;101470.22;5056156;28;20068;-46
2023/01/02 09:30:53;;;;;;;45.17;24.92;;;;;;;7.80;100.00;101470.13;5056207;28;20055;-46
2023/01/02 09:33:19;;;;;;;32.55;19.42;;;;;;;7.81;100.00;101474.47;5055575;28;20017;-46
2023/01/02 09:35:44;;;;;;;32.72;16.13;;;;;;;7.83;100.00;101475.41;5055488;28;20086;-47
2023/01/02 09:38:09;;;;;;;29.50;15.07;;;;;;;7.82;100.00;101471.09;5056303;28;20025;-46
2023/01/02 09:40:36;;;;;;;31.80;16.65;;;;;;;7.83;100.00;101483.13;5055351;28;20361;-46
2023/01/02 09:43:02;;;;;;;33.00;16.40;;;;;;;7.88;100.00;101488.50;5055789;28;20464;-46
2023/01/02 09:45:29;;;;;;;28.92;14.07;;;;;;;7.90;100.00;101494.56;5055605;28;20034;-45
2023/01/02 09:47:58;;;;;;;25.83;12.90;;;;;;;7.91;100.00;101499.81;5055425;28;20032;-44
2023/01/02 09:50:28;;;;;;;27.90;12.95;;;;;;;7.98;100.00;101494.97;5055590;28;20056;-48
2023/01/02 09:52:56;;;;;;;24.65;12.48;;;;;;;7.95;100.00;101489.69;5055761;28;20456;-47
2023/01/02 09:55:39;;;;;;;25.92;11.82;;;;;;;7.98;100.00;101501.00;5055046;28;20158;-48
2023/01/02 09:58:33;;;;;;;23.23;10.48;;;;;;;7.98;100.00;101500.09;5055722;28;20491;-49
2023/01/02 10:00:58;;;;;;;22.20;11.27;;;;;;;8.01;100.00;101500.25;5055166;28;20045;-46
2023/01/02 10:03:48;;;;;;;21.80;12.57;;;;;;;8.00;100.00;101506.19;5055523;28;20060;-44
2023/01/02 10:06:21;;;;;;;25.42;12.35;;;;;;;8.01;100.00;101500.25;5055672;28;20037;-47
2023/01/02 10:09:08;;;;;;;22.85;11.38;;;;;;;7.99;100.00;101507.91;5054757;28;20683;-47
2023/01/02 10:11:42;;;;;;;22.90;12.23;;;;;;;8.01;100.00;101518.25;5055155;28;20115;-47
2023/01/02 10:14:19;;;;;;;22.75;12.32;;;;;;;8.02;100.00;101513.16;5055493;28;20033;-48
2023/01/02 10:16:49;;;;;;;25.92;12.90;;;;;;;8.03;100.00;101508.91;5054660;28;20021;-48
2023/01/02 10:19:26;;;;;;;25.60;12.82;;;;;;;8.10;100.00;101510.13;5055211;28;20027;-48
2023/01/02 10:21:55;;;;;;;;;;;;;;;8.20;100.00;101522.63;5055154;28;20033;-46
2023/01/02 10:24:41;;;;;;;24.92;12.23;;;;;;;8.18;100.00;101519.94;5055103;28;19913;-45
2023/01/02 10:27:13;;;;;;;27.77;15.18;;;;;;;8.19;100.00;101519.16;5055263;28;20025;-44
2023/01/02 10:29:47;;;;;;;31.98;13.98;;;;;;;8.18;100.00;101514.81;5054240;28;20029;-49
2023/01/02 10:32:18;;;;;;;24.60;12.98;;;;;;;8.20;100.00;101518.34;5055040;28;20033;-49
2023/01/02 10:34:58;;;;;;;23.80;12.07;;;;;;;8.19;100.00;101516.59;5054905;28;20049;-48
2023/01/02 10:37:25;;;;;;;23.73;12.90;;;;;;;8.19;100.00;101529.41;5054352;28;20041;-49
2023/01/02 10:39:51;;;;;;;24.20;14.10;;;;;;;8.19;100.00;101537.13;5054643;28;20104;-49
2023/01/02 10:42:16;;;;;;;24.30;12.90;;;;;;;8.17;100.00;101541.31;5054754;28;20048;-48
2023/01/02 10:44:44;;;;;;;25.67;12.85;;;;;;;8.18;100.00;101535.34;5054018;28;20460;-48
2023/01/02 10:47:18;;;;;;;25.52;12.95;;;;;;;8.17;100.00;101533.63;5054739;28;20555;-49
2023/01/02 10:49:44;;;;;;;25.92;12.10;;;;;;;8.19;100.00;101536.25;5053938;28;20425;-48
2023/01/02 10:52:20;;;;;;;21.77;11.40;;;;;;;8.20;100.00;101527.75;5054521;28;20538;-48
2023/01/02 10:54:53;;;;;;;24.08;12.02;;;;;;;8.19;100.00;101537.13;5054274;28;20082;-48
2023/01/02 10:57:25;;;;;;;20.15;11.80;;;;;;;8.21;100.00;101539.75;5054360;28;20047;-49
2023/01/02 10:59:57;;;;;;;27.45;12.93;;;;;;;8.26;100.00;101535.75;5054106;28;20464;-49
2023/01/02 11:02:39;;;;;;;22.70;12.38;;;;;;;8.29;100.00;101547.84;5054403;28;20047;-49
2023/01/02 11:05:07;;;;;;;27.20;13.98;;;;;;;8.27;100.00;101546.91;5053877;28;20124;-46
2023/01/02 11:07:36;;;;;;;23.95;13.63;;;;;;;8.31;100.00;101556.53;5054091;28;20025;-49
2023/01/02 11:10:02;;;;;;;31.05;14.50;;;;;;;8.39;100.00;101558.69;5054552;28;20078;-49
2023/01/02 11:12:27;;;;;;;27.60;16.20;;;;;;;8.46;100.00;101559.91;5053426;28;20059;-45
2023/01/02 11:15:10;;;;;;;27.25;16.25;;;;;;;8.51;100.00;101571.28;5054347;28;20103;-46
2023/01/02 11:17:41;;;;;;;28.40;16.98;;;;;;;8.52;100.00;101567.91;5053982;28;20023;-48
2023/01/02 11:20:21;;;;;;;31.02;17.83;;;;;;;8.58;100.00;101562.19;5053945;28;20025;-48
2023/01/02 11:22:47;;;;;;;34.40;19.48;;;;;;;8.55;100.00;101562.91;5054063;28;20033;-48